Home   Weather   Sweden   Lund   Past weeks
Flag for Sweden

Past Weather in Lund, Sweden — Yesterday and Last 2 Weeks

Currently: 48 °F. Clear. (Weather station: Malmo / Sturup, Sweden). See more current weather

Past Weather in Lund — Graph

°F

Lund Temperature Yesterday

Maximum temperature yesterday: 57 °F (at 12:20 pm)
Minimum temperature yesterday: 43 °F (at 1:20 am)
Average temperature yesterday: 51 °F

High & Low Weather Summary for the Past Weeks

 TemperatureHumidityPressure
High73 °F (May 11, 2:20 pm)100% (May 4, 2:20 am)29.98 "Hg (May 4, 2:20 am)
Low34 °F (May 3, 12:50 am)46% (May 10, 4:20 pm)29.12 "Hg (May 5, 5:20 am)
Average50 °F81%29.64 "Hg
* Reported May 2 8:20 pm — May 17 8:20 pm, Lund. Weather by CustomWeather, © 2021

Note: Actual official high and low records may vary slightly from our data, if they occured in-between our weather recording intervals... More about our weather records

Lund Weather History for the Previous 24 Hours

Scroll right to see more
 ConditionsComfort  
Time TempWeatherWind HumidityBarometerVisibility
8:20 pm
Mon, May 17
54 °FSunny.7 mph67%29.65 "Hg10 mi
7:50 pm55 °FSunny.9 mph59%29.65 "Hg10 mi
7:20 pm57 °FSunny.10 mph59%29.62 "Hg10 mi
6:50 pm59 °FSunny.9 mph55%29.62 "Hg10 mi
6:20 pm59 °FSunny.9 mph51%29.62 "Hg10 mi
5:50 pm59 °FSunny.9 mph51%29.62 "Hg10 mi
5:20 pm59 °FPassing clouds.9 mph55%29.62 "HgN/A
4:50 pm59 °FScattered clouds.12 mph55%29.62 "HgN/A
4:20 pm61 °FScattered clouds.10 mph55%29.62 "HgN/A
3:50 pm61 °FPassing clouds.12 mph52%29.59 "HgN/A
3:20 pm61 °FPassing clouds.13 mph52%29.59 "HgN/A
2:50 pm61 °FPassing clouds.12 mph55%29.59 "HgN/A
2:20 pm59 °FPassing clouds.12 mph55%29.59 "HgN/A
1:50 pm61 °FScattered clouds.12 mph55%29.59 "HgN/A
1:20 pm59 °FScattered clouds.12 mph59%29.59 "HgN/A
12:50 pm59 °FPassing clouds.10 mph59%29.59 "HgN/A
12:20 pm59 °FScattered clouds.9 mph59%29.59 "HgN/A
11:50 am59 °FScattered clouds.10 mph63%29.59 "HgN/A
11:20 am57 °FScattered clouds.7 mph63%29.56 "HgN/A
10:50 am57 °FScattered clouds.6 mph63%29.56 "HgN/A
10:20 am57 °FScattered clouds.6 mph67%29.56 "HgN/A
9:50 am57 °FPassing clouds.3 mph72%29.56 "HgN/A
9:20 am54 °FScattered clouds.3 mph88%29.56 "HgN/A
8:50 am52 °FPartly sunny.6 mph94%29.56 "Hg4 mi
7:50 am48 °FFog.5 mph100%29.56 "Hg1 mi
7:20 am48 °FFog.5 mph94%29.56 "Hg0 mi
6:50 am48 °FFog.5 mph94%29.53 "Hg1 mi
6:20 am46 °FFog.3 mph100%29.53 "Hg3 mi
5:50 am46 °FFog.3 mph100%29.53 "Hg1 mi
5:20 am45 °FFog.3 mph100%29.53 "Hg3 mi
4:50 am46 °FFog.5 mph93%29.53 "Hg1 mi
4:20 am45 °FFog.3 mph100%29.53 "Hg1 mi
3:50 am46 °FFog.5 mph100%29.53 "Hg3 mi
3:20 am46 °FFog.5 mph100%29.53 "Hg2 mi
2:50 am46 °FFog.6 mph100%29.53 "Hg3 mi
2:20 am45 °FFog.6 mph100%29.53 "Hg2 mi
1:50 am46 °FFog.5 mph100%29.53 "Hg2 mi
1:20 am46 °FFog.6 mph93%29.53 "Hg2 mi
12:50 am48 °FFog.5 mph94%29.53 "Hg2 mi
12:20 am48 °FFog.5 mph94%29.56 "Hg2 mi
11:50 pm
Sun, May 16
48 °FClear.6 mph94%29.53 "Hg4 mi
11:20 pm48 °FClear.6 mph94%29.56 "Hg4 mi
10:50 pm48 °FPassing clouds.6 mph94%29.56 "Hg4 mi
10:20 pm50 °FMostly cloudy.3 mph94%29.56 "Hg5 mi
Weather by CustomWeather, © 2021

See weather overview